sensor_id;sensor_type;location;lat;lon;timestamp;P1;durP1;ratioP1;P2;durP2;ratioP2
40322;SDS011;26030;51.164;17.100;2024-02-04T00:01:42;4.20;;;0.90;;
40322;SDS011;26030;51.164;17.100;2024-02-04T00:06:47;1.50;;;0.80;;
40322;SDS011;26030;51.164;17.100;2024-02-04T00:11:53;5.60;;;0.90;;
40322;SDS011;26030;51.164;17.100;2024-02-04T00:16:59;2.20;;;1.20;;
40322;SDS011;26030;51.164;17.100;2024-02-04T00:22:03;2.30;;;0.80;;
40322;SDS011;26030;51.164;17.100;2024-02-04T00:27:08;3.60;;;0.80;;
40322;SDS011;26030;51.164;17.100;2024-02-04T00:32:13;2.80;;;0.80;;
40322;SDS011;26030;51.164;17.100;2024-02-04T00:37:17;1.40;;;0.80;;
40322;SDS011;26030;51.164;17.100;2024-02-04T00:42:21;2.10;;;0.80;;
40322;SDS011;26030;51.164;17.100;2024-02-04T00:47:26;1.40;;;0.90;;
40322;SDS011;26030;51.164;17.100;2024-02-04T00:52:30;1.00;;;0.80;;
40322;SDS011;26030;51.164;17.100;2024-02-04T00:57:35;0.80;;;0.80;;
40322;SDS011;26030;51.164;17.100;2024-02-04T01:02:39;0.70;;;0.60;;
40322;SDS011;26030;51.164;17.100;2024-02-04T01:07:44;0.90;;;0.70;;
40322;SDS011;26030;51.164;17.100;2024-02-04T01:12:48;0.80;;;0.70;;
40322;SDS011;26030;51.164;17.100;2024-02-04T01:17:52;1.30;;;0.90;;
40322;SDS011;26030;51.164;17.100;2024-02-04T01:22:57;3.40;;;0.70;;
40322;SDS011;26030;51.164;17.100;2024-02-04T01:28:01;1.10;;;0.90;;
40322;SDS011;26030;51.164;17.100;2024-02-04T01:33:06;0.80;;;0.80;;
40322;SDS011;26030;51.164;17.100;2024-02-04T01:38:11;1.20;;;0.60;;
40322;SDS011;26030;51.164;17.100;2024-02-04T01:43:15;0.70;;;0.60;;
40322;SDS011;26030;51.164;17.100;2024-02-04T01:48:21;0.60;;;0.60;;
40322;SDS011;26030;51.164;17.100;2024-02-04T01:53:26;0.80;;;0.70;;
40322;SDS011;26030;51.164;17.100;2024-02-04T01:58:32;1.00;;;0.70;;
40322;SDS011;26030;51.164;17.100;2024-02-04T02:03:38;1.00;;;0.60;;
40322;SDS011;26030;51.164;17.100;2024-02-04T02:08:44;0.50;;;0.50;;
40322;SDS011;26030;51.164;17.100;2024-02-04T02:13:54;0.90;;;0.90;;
40322;SDS011;26030;51.164;17.100;2024-02-04T02:24:42;0.60;;;0.60;;
40322;SDS011;26030;51.164;17.100;2024-02-04T02:29:48;1.40;;;0.70;;
40322;SDS011;26030;51.164;17.100;2024-02-04T02:34:54;0.60;;;0.50;;
40322;SDS011;26030;51.164;17.100;2024-02-04T02:45:13;0.80;;;0.70;;
40322;SDS011;26030;51.164;17.100;2024-02-04T02:50:18;0.50;;;0.50;;
40322;SDS011;26030;51.164;17.100;2024-02-04T02:55:23;0.80;;;0.50;;
40322;SDS011;26030;51.164;17.100;2024-02-04T03:00:28;0.60;;;0.50;;
40322;SDS011;26030;51.164;17.100;2024-02-04T03:05:32;0.80;;;0.60;;
40322;SDS011;26030;51.164;17.100;2024-02-04T03:10:37;0.60;;;0.50;;
40322;SDS011;26030;51.164;17.100;2024-02-04T03:15:41;1.20;;;0.80;;
40322;SDS011;26030;51.164;17.100;2024-02-04T03:20:46;0.80;;;0.60;;
40322;SDS011;26030;51.164;17.100;2024-02-04T03:25:51;0.50;;;0.50;;
40322;SDS011;26030;51.164;17.100;2024-02-04T03:30:55;0.80;;;0.50;;
40322;SDS011;26030;51.164;17.100;2024-02-04T03:36:00;0.50;;;0.40;;
40322;SDS011;26030;51.164;17.100;2024-02-04T03:41:05;0.90;;;0.50;;
40322;SDS011;26030;51.164;17.100;2024-02-04T03:46:16;1.60;;;0.70;;
40322;SDS011;26030;51.164;17.100;2024-02-04T03:51:21;0.60;;;0.60;;
40322;SDS011;26030;51.164;17.100;2024-02-04T03:56:26;0.80;;;0.50;;
40322;SDS011;26030;51.164;17.100;2024-02-04T04:01:30;0.30;;;0.30;;
40322;SDS011;26030;51.164;17.100;2024-02-04T04:06:35;0.90;;;0.60;;
40322;SDS011;26030;51.164;17.100;2024-02-04T04:11:39;0.80;;;0.50;;
40322;SDS011;26030;51.164;17.100;2024-02-04T04:16:43;0.50;;;0.40;;
40322;SDS011;26030;51.164;17.100;2024-02-04T04:21:48;0.80;;;0.50;;
40322;SDS011;26030;51.164;17.100;2024-02-04T04:26:53;0.60;;;0.50;;
40322;SDS011;26030;51.164;17.100;2024-02-04T04:31:57;0.40;;;0.40;;
40322;SDS011;26030;51.164;17.100;2024-02-04T04:37:02;0.40;;;0.30;;
40322;SDS011;26030;51.164;17.100;2024-02-04T04:42:06;0.60;;;0.40;;
40322;SDS011;26030;51.164;17.100;2024-02-04T04:47:11;0.50;;;0.50;;
40322;SDS011;26030;51.164;17.100;2024-02-04T04:52:16;0.60;;;0.50;;
40322;SDS011;26030;51.164;17.100;2024-02-04T04:57:21;0.40;;;0.40;;
40322;SDS011;26030;51.164;17.100;2024-02-04T05:02:25;0.90;;;0.60;;
40322;SDS011;26030;51.164;17.100;2024-02-04T05:07:30;1.00;;;0.50;;
40322;SDS011;26030;51.164;17.100;2024-02-04T05:12:36;0.70;;;0.40;;
40322;SDS011;26030;51.164;17.100;2024-02-04T05:17:40;0.40;;;0.40;;
40322;SDS011;26030;51.164;17.100;2024-02-04T05:22:45;0.40;;;0.40;;
40322;SDS011;26030;51.164;17.100;2024-02-04T05:27:49;0.40;;;0.30;;
40322;SDS011;26030;51.164;17.100;2024-02-04T05:32:54;0.60;;;0.30;;
40322;SDS011;26030;51.164;17.100;2024-02-04T05:37:59;0.50;;;0.40;;
40322;SDS011;26030;51.164;17.100;2024-02-04T05:43:03;0.30;;;0.30;;
40322;SDS011;26030;51.164;17.100;2024-02-04T05:48:15;0.60;;;0.50;;
40322;SDS011;26030;51.164;17.100;2024-02-04T05:53:20;2.00;;;0.40;;
40322;SDS011;26030;51.164;17.100;2024-02-04T05:58:25;0.50;;;0.40;;
40322;SDS011;26030;51.164;17.100;2024-02-04T06:03:29;0.40;;;0.40;;
40322;SDS011;26030;51.164;17.100;2024-02-04T06:08:34;2.20;;;0.30;;
40322;SDS011;26030;51.164;17.100;2024-02-04T06:13:43;0.30;;;0.30;;
40322;SDS011;26030;51.164;17.100;2024-02-04T06:18:48;0.30;;;0.30;;
40322;SDS011;26030;51.164;17.100;2024-02-04T06:23:52;0.50;;;0.40;;
40322;SDS011;26030;51.164;17.100;2024-02-04T06:28:57;0.70;;;0.50;;
40322;SDS011;26030;51.164;17.100;2024-02-04T06:34:01;0.60;;;0.50;;
40322;SDS011;26030;51.164;17.100;2024-02-04T06:39:06;1.40;;;0.50;;
40322;SDS011;26030;51.164;17.100;2024-02-04T06:44:12;0.80;;;0.60;;
40322;SDS011;26030;51.164;17.100;2024-02-04T06:49:17;0.30;;;0.30;;
40322;SDS011;26030;51.164;17.100;2024-02-04T06:54:23;0.90;;;0.50;;
40322;SDS011;26030;51.164;17.100;2024-02-04T06:59:28;0.50;;;0.40;;
40322;SDS011;26030;51.164;17.100;2024-02-04T07:04:32;0.50;;;0.50;;
40322;SDS011;26030;51.164;17.100;2024-02-04T07:09:39;0.20;;;0.20;;
40322;SDS011;26030;51.164;17.100;2024-02-04T07:14:44;1.40;;;0.30;;
40322;SDS011;26030;51.164;17.100;2024-02-04T07:19:49;0.40;;;0.40;;
40322;SDS011;26030;51.164;17.100;2024-02-04T07:24:54;0.40;;;0.30;;
40322;SDS011;26030;51.164;17.100;2024-02-04T07:29:58;0.20;;;0.20;;
40322;SDS011;26030;51.164;17.100;2024-02-04T07:35:04;0.80;;;0.40;;
40322;SDS011;26030;51.164;17.100;2024-02-04T07:40:08;0.60;;;0.40;;
40322;SDS011;26030;51.164;17.100;2024-02-04T07:45:13;1.40;;;0.30;;
40322;SDS011;26030;51.164;17.100;2024-02-04T07:50:18;1.90;;;0.40;;
40322;SDS011;26030;51.164;17.100;2024-02-04T07:55:22;0.30;;;0.30;;
40322;SDS011;26030;51.164;17.100;2024-02-04T08:00:27;0.70;;;0.40;;
40322;SDS011;26030;51.164;17.100;2024-02-04T08:05:32;0.30;;;0.30;;
40322;SDS011;26030;51.164;17.100;2024-02-04T08:10:39;0.40;;;0.40;;
40322;SDS011;26030;51.164;17.100;2024-02-04T08:15:43;0.30;;;0.30;;
40322;SDS011;26030;51.164;17.100;2024-02-04T08:20:48;0.30;;;0.30;;
40322;SDS011;26030;51.164;17.100;2024-02-04T08:25:52;0.40;;;0.40;;
40322;SDS011;26030;51.164;17.100;2024-02-04T08:30:57;0.30;;;0.30;;
40322;SDS011;26030;51.164;17.100;2024-02-04T08:36:02;0.70;;;0.40;;
40322;SDS011;26030;51.164;17.100;2024-02-04T08:41:07;0.50;;;0.40;;
40322;SDS011;26030;51.164;17.100;2024-02-04T08:46:11;0.60;;;0.40;;
40322;SDS011;26030;51.164;17.100;2024-02-04T08:51:17;0.90;;;0.30;;
40322;SDS011;26030;51.164;17.100;2024-02-04T08:56:23;0.60;;;0.30;;
40322;SDS011;26030;51.164;17.100;2024-02-04T09:01:27;0.60;;;0.40;;
40322;SDS011;26030;51.164;17.100;2024-02-04T09:06:32;0.90;;;0.50;;
40322;SDS011;26030;51.164;17.100;2024-02-04T09:11:37;0.80;;;0.30;;
40322;SDS011;26030;51.164;17.100;2024-02-04T09:16:42;0.50;;;0.30;;
40322;SDS011;26030;51.164;17.100;2024-02-04T09:21:46;0.60;;;0.50;;
40322;SDS011;26030;51.164;17.100;2024-02-04T09:26:51;1.20;;;0.50;;
40322;SDS011;26030;51.164;17.100;2024-02-04T09:31:57;4.10;;;0.50;;
40322;SDS011;26030;51.164;17.100;2024-02-04T09:37:02;3.30;;;0.60;;
40322;SDS011;26030;51.164;17.100;2024-02-04T09:42:07;0.60;;;0.60;;
40322;SDS011;26030;51.164;17.100;2024-02-04T09:47:12;0.70;;;0.60;;
40322;SDS011;26030;51.164;17.100;2024-02-04T09:52:19;0.90;;;0.50;;
40322;SDS011;26030;51.164;17.100;2024-02-04T09:57:31;0.70;;;0.40;;
40322;SDS011;26030;51.164;17.100;2024-02-04T10:02:36;2.80;;;0.70;;
40322;SDS011;26030;51.164;17.100;2024-02-04T10:07:42;2.40;;;0.40;;
40322;SDS011;26030;51.164;17.100;2024-02-04T10:12:47;6.70;;;0.70;;
40322;SDS011;26030;51.164;17.100;2024-02-04T10:17:52;1.20;;;0.70;;
40322;SDS011;26030;51.164;17.100;2024-02-04T10:22:58;2.70;;;1.10;;
40322;SDS011;26030;51.164;17.100;2024-02-04T10:28:03;0.90;;;0.50;;
40322;SDS011;26030;51.164;17.100;2024-02-04T10:33:08;7.00;;;1.40;;
40322;SDS011;26030;51.164;17.100;2024-02-04T10:38:13;2.40;;;1.20;;
40322;SDS011;26030;51.164;17.100;2024-02-04T10:43:18;15.60;;;1.80;;
40322;SDS011;26030;51.164;17.100;2024-02-04T10:48:25;4.20;;;0.90;;
40322;SDS011;26030;51.164;17.100;2024-02-04T10:53:31;7.60;;;1.50;;
40322;SDS011;26030;51.164;17.100;2024-02-04T10:58:39;6.80;;;1.40;;
40322;SDS011;26030;51.164;17.100;2024-02-04T11:03:45;12.20;;;1.90;;
40322;SDS011;26030;51.164;17.100;2024-02-04T11:08:51;3.30;;;1.70;;
40322;SDS011;26030;51.164;17.100;2024-02-04T11:14:01;4.50;;;1.60;;
40322;SDS011;26030;51.164;17.100;2024-02-04T11:30:14;8.00;;;1.60;;
40322;SDS011;26030;51.164;17.100;2024-02-04T11:35:20;3.40;;;1.60;;
40322;SDS011;26030;51.164;17.100;2024-02-04T11:40:34;3.90;;;1.30;;
40322;SDS011;26030;51.164;17.100;2024-02-04T11:50:54;5.20;;;1.70;;
40322;SDS011;26030;51.164;17.100;2024-02-04T11:56:00;3.80;;;1.50;;
40322;SDS011;26030;51.164;17.100;2024-02-04T12:01:09;4.20;;;1.20;;
40322;SDS011;26030;51.164;17.100;2024-02-04T12:06:16;2.80;;;1.60;;
40322;SDS011;26030;51.164;17.100;2024-02-04T12:11:21;5.20;;;1.60;;
40322;SDS011;26030;51.164;17.100;2024-02-04T12:16:27;6.30;;;1.50;;
40322;SDS011;26030;51.164;17.100;2024-02-04T12:21:37;6.20;;;1.60;;
40322;SDS011;26030;51.164;17.100;2024-02-04T12:26:44;3.30;;;1.40;;
40322;SDS011;26030;51.164;17.100;2024-02-04T12:32:02;2.60;;;1.40;;
40322;SDS011;26030;51.164;17.100;2024-02-04T12:37:10;4.70;;;1.70;;
40322;SDS011;26030;51.164;17.100;2024-02-04T12:42:18;4.50;;;1.80;;
40322;SDS011;26030;51.164;17.100;2024-02-04T12:47:24;4.40;;;1.50;;
40322;SDS011;26030;51.164;17.100;2024-02-04T12:52:32;5.30;;;1.60;;
40322;SDS011;26030;51.164;17.100;2024-02-04T12:57:44;6.00;;;1.50;;
40322;SDS011;26030;51.164;17.100;2024-02-04T13:02:55;2.70;;;1.60;;
40322;SDS011;26030;51.164;17.100;2024-02-04T13:08:01;2.90;;;1.30;;
40322;SDS011;26030;51.164;17.100;2024-02-04T13:13:10;4.90;;;1.50;;
40322;SDS011;26030;51.164;17.100;2024-02-04T13:18:15;2.80;;;1.20;;
40322;SDS011;26030;51.164;17.100;2024-02-04T13:23:20;7.40;;;1.30;;
40322;SDS011;26030;51.164;17.100;2024-02-04T13:28:25;5.80;;;1.60;;
40322;SDS011;26030;51.164;17.100;2024-02-04T13:33:30;3.10;;;0.80;;
40322;SDS011;26030;51.164;17.100;2024-02-04T13:38:35;6.20;;;1.40;;
40322;SDS011;26030;51.164;17.100;2024-02-04T13:43:41;8.10;;;2.30;;
40322;SDS011;26030;51.164;17.100;2024-02-04T13:48:47;5.50;;;1.30;;
40322;SDS011;26030;51.164;17.100;2024-02-04T13:53:51;5.90;;;1.80;;
40322;SDS011;26030;51.164;17.100;2024-02-04T13:58:56;6.40;;;1.70;;
40322;SDS011;26030;51.164;17.100;2024-02-04T14:04:02;5.80;;;1.70;;
40322;SDS011;26030;51.164;17.100;2024-02-04T14:09:07;4.30;;;1.60;;
40322;SDS011;26030;51.164;17.100;2024-02-04T14:14:12;5.40;;;1.50;;
40322;SDS011;26030;51.164;17.100;2024-02-04T14:19:18;6.70;;;1.40;;
40322;SDS011;26030;51.164;17.100;2024-02-04T14:24:22;6.40;;;1.60;;
40322;SDS011;26030;51.164;17.100;2024-02-04T14:29:27;4.40;;;1.40;;
40322;SDS011;26030;51.164;17.100;2024-02-04T14:34:31;6.40;;;1.00;;
40322;SDS011;26030;51.164;17.100;2024-02-04T14:39:36;2.60;;;1.50;;
40322;SDS011;26030;51.164;17.100;2024-02-04T14:44:41;2.10;;;1.00;;
40322;SDS011;26030;51.164;17.100;2024-02-04T14:49:46;2.20;;;1.30;;
40322;SDS011;26030;51.164;17.100;2024-02-04T14:54:50;3.10;;;1.90;;
40322;SDS011;26030;51.164;17.100;2024-02-04T14:59:55;3.60;;;1.50;;
40322;SDS011;26030;51.164;17.100;2024-02-04T15:05:00;4.80;;;1.70;;
40322;SDS011;26030;51.164;17.100;2024-02-04T15:10:05;4.60;;;1.80;;
40322;SDS011;26030;51.164;17.100;2024-02-04T15:15:11;2.10;;;1.60;;
40322;SDS011;26030;51.164;17.100;2024-02-04T15:20:16;4.60;;;1.50;;
40322;SDS011;26030;51.164;17.100;2024-02-04T15:25:22;5.00;;;1.40;;
40322;SDS011;26030;51.164;17.100;2024-02-04T15:30:28;4.90;;;1.50;;
40322;SDS011;26030;51.164;17.100;2024-02-04T15:35:33;4.40;;;1.40;;
40322;SDS011;26030;51.164;17.100;2024-02-04T15:40:39;7.20;;;1.40;;
40322;SDS011;26030;51.164;17.100;2024-02-04T15:45:44;6.50;;;1.60;;
40322;SDS011;26030;51.164;17.100;2024-02-04T15:50:51;5.20;;;1.50;;
40322;SDS011;26030;51.164;17.100;2024-02-04T15:55:56;4.50;;;1.20;;
40322;SDS011;26030;51.164;17.100;2024-02-04T16:01:02;6.90;;;1.50;;
40322;SDS011;26030;51.164;17.100;2024-02-04T16:06:11;6.10;;;1.00;;
40322;SDS011;26030;51.164;17.100;2024-02-04T16:11:19;6.50;;;1.40;;
40322;SDS011;26030;51.164;17.100;2024-02-04T16:16:33;7.00;;;1.30;;
40322;SDS011;26030;51.164;17.100;2024-02-04T16:21:39;3.50;;;1.80;;
40322;SDS011;26030;51.164;17.100;2024-02-04T16:26:43;8.00;;;1.40;;
40322;SDS011;26030;51.164;17.100;2024-02-04T16:31:48;7.50;;;2.40;;
40322;SDS011;26030;51.164;17.100;2024-02-04T16:36:52;10.50;;;4.30;;
40322;SDS011;26030;51.164;17.100;2024-02-04T16:41:57;8.10;;;3.50;;
40322;SDS011;26030;51.164;17.100;2024-02-04T16:47:01;5.60;;;2.50;;
40322;SDS011;26030;51.164;17.100;2024-02-04T16:52:06;9.10;;;3.30;;
40322;SDS011;26030;51.164;17.100;2024-02-04T16:57:11;6.00;;;2.70;;
40322;SDS011;26030;51.164;17.100;2024-02-04T17:02:16;4.80;;;2.20;;
40322;SDS011;26030;51.164;17.100;2024-02-04T17:07:25;4.60;;;2.30;;
40322;SDS011;26030;51.164;17.100;2024-02-04T17:12:31;4.10;;;2.40;;
40322;SDS011;26030;51.164;17.100;2024-02-04T17:17:40;8.50;;;2.40;;
40322;SDS011;26030;51.164;17.100;2024-02-04T17:22:46;4.10;;;2.20;;
40322;SDS011;26030;51.164;17.100;2024-02-04T17:27:51;5.20;;;2.40;;
40322;SDS011;26030;51.164;17.100;2024-02-04T17:32:57;4.30;;;2.10;;
40322;SDS011;26030;51.164;17.100;2024-02-04T17:38:02;4.20;;;1.90;;
40322;SDS011;26030;51.164;17.100;2024-02-04T17:43:09;3.80;;;1.90;;
40322;SDS011;26030;51.164;17.100;2024-02-04T17:48:17;5.40;;;2.30;;
40322;SDS011;26030;51.164;17.100;2024-02-04T17:53:21;9.40;;;2.20;;
40322;SDS011;26030;51.164;17.100;2024-02-04T17:58:28;8.30;;;2.60;;
40322;SDS011;26030;51.164;17.100;2024-02-04T18:03:32;4.10;;;1.80;;
40322;SDS011;26030;51.164;17.100;2024-02-04T18:08:39;3.70;;;1.70;;
40322;SDS011;26030;51.164;17.100;2024-02-04T18:13:45;6.70;;;1.80;;
40322;SDS011;26030;51.164;17.100;2024-02-04T18:18:50;5.70;;;2.20;;
40322;SDS011;26030;51.164;17.100;2024-02-04T18:23:56;4.80;;;2.20;;
40322;SDS011;26030;51.164;17.100;2024-02-04T18:29:02;3.80;;;1.60;;
40322;SDS011;26030;51.164;17.100;2024-02-04T18:34:07;4.20;;;1.70;;
40322;SDS011;26030;51.164;17.100;2024-02-04T18:39:12;3.10;;;1.80;;
40322;SDS011;26030;51.164;17.100;2024-02-04T18:44:18;2.50;;;1.50;;
40322;SDS011;26030;51.164;17.100;2024-02-04T18:49:24;3.90;;;2.00;;
40322;SDS011;26030;51.164;17.100;2024-02-04T18:54:29;10.20;;;2.00;;
40322;SDS011;26030;51.164;17.100;2024-02-04T18:59:34;6.50;;;1.70;;
40322;SDS011;26030;51.164;17.100;2024-02-04T19:04:44;4.30;;;1.80;;
40322;SDS011;26030;51.164;17.100;2024-02-04T19:09:49;8.00;;;2.00;;
40322;SDS011;26030;51.164;17.100;2024-02-04T19:14:55;7.00;;;1.70;;
40322;SDS011;26030;51.164;17.100;2024-02-04T19:20:00;3.60;;;1.70;;
40322;SDS011;26030;51.164;17.100;2024-02-04T19:25:05;3.40;;;1.80;;
40322;SDS011;26030;51.164;17.100;2024-02-04T19:30:13;4.90;;;1.50;;
40322;SDS011;26030;51.164;17.100;2024-02-04T19:35:19;3.80;;;1.30;;
40322;SDS011;26030;51.164;17.100;2024-02-04T19:40:24;10.40;;;3.80;;
40322;SDS011;26030;51.164;17.100;2024-02-04T19:45:29;5.30;;;1.60;;
40322;SDS011;26030;51.164;17.100;2024-02-04T19:50:33;6.50;;;2.20;;
40322;SDS011;26030;51.164;17.100;2024-02-04T19:55:39;7.00;;;1.80;;
40322;SDS011;26030;51.164;17.100;2024-02-04T20:00:44;7.60;;;2.20;;
40322;SDS011;26030;51.164;17.100;2024-02-04T20:05:48;13.20;;;2.50;;
40322;SDS011;26030;51.164;17.100;2024-02-04T20:10:53;13.70;;;2.10;;
40322;SDS011;26030;51.164;17.100;2024-02-04T20:15:57;13.20;;;1.80;;
40322;SDS011;26030;51.164;17.100;2024-02-04T20:21:04;12.20;;;1.90;;
40322;SDS011;26030;51.164;17.100;2024-02-04T20:26:09;6.30;;;2.50;;
40322;SDS011;26030;51.164;17.100;2024-02-04T20:31:14;6.80;;;1.80;;
40322;SDS011;26030;51.164;17.100;2024-02-04T20:36:18;10.00;;;2.00;;
40322;SDS011;26030;51.164;17.100;2024-02-04T20:41:23;5.50;;;1.80;;
40322;SDS011;26030;51.164;17.100;2024-02-04T20:46:27;9.50;;;1.60;;
40322;SDS011;26030;51.164;17.100;2024-02-04T20:51:33;3.60;;;1.40;;
40322;SDS011;26030;51.164;17.100;2024-02-04T20:56:38;6.20;;;1.80;;
40322;SDS011;26030;51.164;17.100;2024-02-04T21:01:48;6.30;;;2.20;;
40322;SDS011;26030;51.164;17.100;2024-02-04T21:06:53;5.00;;;1.70;;
40322;SDS011;26030;51.164;17.100;2024-02-04T21:11:57;4.40;;;1.70;;
40322;SDS011;26030;51.164;17.100;2024-02-04T21:17:02;4.80;;;1.00;;
40322;SDS011;26030;51.164;17.100;2024-02-04T21:22:11;7.50;;;2.30;;
40322;SDS011;26030;51.164;17.100;2024-02-04T21:27:17;3.10;;;1.20;;
40322;SDS011;26030;51.164;17.100;2024-02-04T21:32:22;2.60;;;1.30;;
40322;SDS011;26030;51.164;17.100;2024-02-04T21:37:27;2.80;;;1.40;;
40322;SDS011;26030;51.164;17.100;2024-02-04T21:42:31;5.70;;;2.00;;
40322;SDS011;26030;51.164;17.100;2024-02-04T21:47:36;3.00;;;1.50;;
40322;SDS011;26030;51.164;17.100;2024-02-04T21:52:41;4.40;;;1.40;;
40322;SDS011;26030;51.164;17.100;2024-02-04T21:57:46;3.30;;;1.40;;
40322;SDS011;26030;51.164;17.100;2024-02-04T22:02:50;6.10;;;1.70;;
40322;SDS011;26030;51.164;17.100;2024-02-04T22:07:57;4.20;;;1.40;;
40322;SDS011;26030;51.164;17.100;2024-02-04T22:13:01;4.30;;;1.30;;
40322;SDS011;26030;51.164;17.100;2024-02-04T22:18:07;4.60;;;1.30;;
40322;SDS011;26030;51.164;17.100;2024-02-04T22:23:14;2.20;;;0.90;;
40322;SDS011;26030;51.164;17.100;2024-02-04T22:28:19;2.40;;;1.00;;
40322;SDS011;26030;51.164;17.100;2024-02-04T22:33:23;3.20;;;1.30;;
40322;SDS011;26030;51.164;17.100;2024-02-04T22:38:29;4.90;;;1.30;;
40322;SDS011;26030;51.164;17.100;2024-02-04T22:43:33;1.80;;;1.10;;
40322;SDS011;26030;51.164;17.100;2024-02-04T22:48:39;3.90;;;1.30;;
40322;SDS011;26030;51.164;17.100;2024-02-04T22:53:43;2.70;;;1.20;;
40322;SDS011;26030;51.164;17.100;2024-02-04T22:58:48;1.90;;;1.00;;
40322;SDS011;26030;51.164;17.100;2024-02-04T23:03:53;4.20;;;1.10;;
40322;SDS011;26030;51.164;17.100;2024-02-04T23:09:00;1.80;;;0.80;;
40322;SDS011;26030;51.164;17.100;2024-02-04T23:14:04;3.90;;;1.30;;
40322;SDS011;26030;51.164;17.100;2024-02-04T23:19:10;1.40;;;0.70;;
40322;SDS011;26030;51.164;17.100;2024-02-04T23:24:17;4.10;;;0.90;;
40322;SDS011;26030;51.164;17.100;2024-02-04T23:29:21;1.90;;;0.90;;
40322;SDS011;26030;51.164;17.100;2024-02-04T23:34:25;3.80;;;1.20;;
40322;SDS011;26030;51.164;17.100;2024-02-04T23:39:30;4.50;;;1.10;;
40322;SDS011;26030;51.164;17.100;2024-02-04T23:44:34;2.10;;;1.20;;
40322;SDS011;26030;51.164;17.100;2024-02-04T23:49:40;2.50;;;1.30;;
40322;SDS011;26030;51.164;17.100;2024-02-04T23:54:45;2.90;;;1.00;;
40322;SDS011;26030;51.164;17.100;2024-02-04T23:59:50;2.30;;;1.00;;
